sensor_id;sensor_type;location;lat;lon;timestamp;P1;durP1;ratioP1;P2;durP2;ratioP2
84084;SDS011;74175;41.730;44.734;2024-03-17T00:01:01;4.38;;;1.50;;
84084;SDS011;74175;41.730;44.734;2024-03-17T00:03:29;4.50;;;1.30;;
84084;SDS011;74175;41.730;44.734;2024-03-17T00:05:59;5.90;;;1.70;;
84084;SDS011;74175;41.730;44.734;2024-03-17T00:08:26;4.20;;;1.45;;
84084;SDS011;74175;41.730;44.734;2024-03-17T00:10:55;5.43;;;1.95;;
84084;SDS011;74175;41.730;44.734;2024-03-17T00:13:22;3.67;;;1.30;;
84084;SDS011;74175;41.730;44.734;2024-03-17T00:15:49;3.67;;;1.20;;
84084;SDS011;74175;41.730;44.734;2024-03-17T00:18:16;3.50;;;1.10;;
84084;SDS011;74175;41.730;44.734;2024-03-17T00:20:42;3.60;;;1.20;;
84084;SDS011;74175;41.730;44.734;2024-03-17T00:23:09;3.30;;;0.82;;
84084;SDS011;74175;41.730;44.734;2024-03-17T00:25:37;4.18;;;1.42;;
84084;SDS011;74175;41.730;44.734;2024-03-17T00:28:04;5.03;;;1.70;;
84084;SDS011;74175;41.730;44.734;2024-03-17T00:30:30;4.82;;;2.00;;
84084;SDS011;74175;41.730;44.734;2024-03-17T00:32:57;5.18;;;1.92;;
84084;SDS011;74175;41.730;44.734;2024-03-17T00:35:26;4.20;;;1.40;;
84084;SDS011;74175;41.730;44.734;2024-03-17T00:37:52;4.60;;;1.58;;
84084;SDS011;74175;41.730;44.734;2024-03-17T00:40:19;3.97;;;1.07;;
84084;SDS011;74175;41.730;44.734;2024-03-17T00:42:46;3.88;;;1.30;;
84084;SDS011;74175;41.730;44.734;2024-03-17T00:45:12;4.22;;;1.30;;
84084;SDS011;74175;41.730;44.734;2024-03-17T00:47:39;3.58;;;1.15;;
84084;SDS011;74175;41.730;44.734;2024-03-17T00:50:05;4.20;;;1.20;;
84084;SDS011;74175;41.730;44.734;2024-03-17T00:52:33;3.33;;;0.90;;
84084;SDS011;74175;41.730;44.734;2024-03-17T00:54:59;4.20;;;1.00;;
84084;SDS011;74175;41.730;44.734;2024-03-17T00:57:25;3.47;;;0.95;;
84084;SDS011;74175;41.730;44.734;2024-03-17T00:59:51;3.72;;;1.00;;
84084;SDS011;74175;41.730;44.734;2024-03-17T01:02:18;4.53;;;1.45;;
84084;SDS011;74175;41.730;44.734;2024-03-17T01:04:46;4.00;;;1.40;;
84084;SDS011;74175;41.730;44.734;2024-03-17T01:07:12;4.13;;;1.10;;
84084;SDS011;74175;41.730;44.734;2024-03-17T01:09:38;3.67;;;1.00;;
84084;SDS011;74175;41.730;44.734;2024-03-17T01:12:04;3.28;;;0.80;;
84084;SDS011;74175;41.730;44.734;2024-03-17T01:14:31;3.40;;;0.88;;
84084;SDS011;74175;41.730;44.734;2024-03-17T01:16:58;3.77;;;1.20;;
84084;SDS011;74175;41.730;44.734;2024-03-17T01:19:24;4.13;;;1.05;;
84084;SDS011;74175;41.730;44.734;2024-03-17T01:21:51;4.03;;;1.10;;
84084;SDS011;74175;41.730;44.734;2024-03-17T01:24:17;3.67;;;1.02;;
84084;SDS011;74175;41.730;44.734;2024-03-17T01:26:44;4.22;;;1.52;;
84084;SDS011;74175;41.730;44.734;2024-03-17T01:29:11;4.60;;;1.90;;
84084;SDS011;74175;41.730;44.734;2024-03-17T01:31:39;3.92;;;1.10;;
84084;SDS011;74175;41.730;44.734;2024-03-17T01:34:05;4.20;;;1.55;;
84084;SDS011;74175;41.730;44.734;2024-03-17T01:36:31;3.83;;;1.17;;
84084;SDS011;74175;41.730;44.734;2024-03-17T01:38:57;5.07;;;1.98;;
84084;SDS011;74175;41.730;44.734;2024-03-17T01:41:23;4.70;;;1.90;;
84084;SDS011;74175;41.730;44.734;2024-03-17T01:43:49;3.95;;;1.25;;
84084;SDS011;74175;41.730;44.734;2024-03-17T01:46:16;4.65;;;1.30;;
84084;SDS011;74175;41.730;44.734;2024-03-17T01:48:43;3.33;;;0.90;;
84084;SDS011;74175;41.730;44.734;2024-03-17T01:51:11;3.33;;;1.10;;
84084;SDS011;74175;41.730;44.734;2024-03-17T01:53:37;3.55;;;1.20;;
84084;SDS011;74175;41.730;44.734;2024-03-17T01:56:04;3.88;;;1.48;;
84084;SDS011;74175;41.730;44.734;2024-03-17T01:58:30;4.35;;;1.13;;
84084;SDS011;74175;41.730;44.734;2024-03-17T02:00:56;4.18;;;1.45;;
84084;SDS011;74175;41.730;44.734;2024-03-17T02:03:22;3.58;;;1.10;;
84084;SDS011;74175;41.730;44.734;2024-03-17T02:05:48;3.80;;;1.23;;
84084;SDS011;74175;41.730;44.734;2024-03-17T02:08:16;3.67;;;0.93;;
84084;SDS011;74175;41.730;44.734;2024-03-17T02:10:45;4.25;;;1.33;;
84084;SDS011;74175;41.730;44.734;2024-03-17T02:13:11;3.80;;;1.40;;
84084;SDS011;74175;41.730;44.734;2024-03-17T02:15:37;3.63;;;1.10;;
84084;SDS011;74175;41.730;44.734;2024-03-17T02:18:04;3.93;;;1.40;;
84084;SDS011;74175;41.730;44.734;2024-03-17T02:20:30;4.43;;;1.25;;
84084;SDS011;74175;41.730;44.734;2024-03-17T02:23:15;3.50;;;1.10;;
84084;SDS011;74175;41.730;44.734;2024-03-17T02:25:41;5.20;;;1.60;;
84084;SDS011;74175;41.730;44.734;2024-03-17T02:28:07;4.20;;;1.10;;
84084;SDS011;74175;41.730;44.734;2024-03-17T02:30:33;3.20;;;0.80;;
84084;SDS011;74175;41.730;44.734;2024-03-17T02:33:00;3.17;;;0.70;;
84084;SDS011;74175;41.730;44.734;2024-03-17T02:35:26;3.40;;;0.73;;
84084;SDS011;74175;41.730;44.734;2024-03-17T02:37:52;3.80;;;1.23;;
84084;SDS011;74175;41.730;44.734;2024-03-17T02:40:20;4.05;;;1.10;;
84084;SDS011;74175;41.730;44.734;2024-03-17T02:42:46;3.83;;;1.00;;
84084;SDS011;74175;41.730;44.734;2024-03-17T02:45:12;4.18;;;1.50;;
84084;SDS011;74175;41.730;44.734;2024-03-17T02:47:39;3.53;;;1.10;;
84084;SDS011;74175;41.730;44.734;2024-03-17T02:50:09;3.53;;;1.10;;
84084;SDS011;74175;41.730;44.734;2024-03-17T02:52:35;4.35;;;1.30;;
84084;SDS011;74175;41.730;44.734;2024-03-17T02:55:02;4.40;;;1.03;;
84084;SDS011;74175;41.730;44.734;2024-03-17T02:57:31;3.25;;;0.90;;
84084;SDS011;74175;41.730;44.734;2024-03-17T02:59:58;3.00;;;0.60;;
84084;SDS011;74175;41.730;44.734;2024-03-17T03:02:24;3.40;;;1.10;;
84084;SDS011;74175;41.730;44.734;2024-03-17T03:04:50;3.13;;;0.85;;
84084;SDS011;74175;41.730;44.734;2024-03-17T03:07:17;3.90;;;1.30;;
84084;SDS011;74175;41.730;44.734;2024-03-17T03:09:43;4.43;;;1.50;;
84084;SDS011;74175;41.730;44.734;2024-03-17T03:12:09;4.38;;;1.05;;
84084;SDS011;74175;41.730;44.734;2024-03-17T03:14:36;3.40;;;0.80;;
84084;SDS011;74175;41.730;44.734;2024-03-17T03:17:02;3.63;;;1.00;;
84084;SDS011;74175;41.730;44.734;2024-03-17T03:19:29;3.15;;;0.73;;
84084;SDS011;74175;41.730;44.734;2024-03-17T03:21:55;4.55;;;1.20;;
84084;SDS011;74175;41.730;44.734;2024-03-17T03:24:22;3.58;;;0.90;;
84084;SDS011;74175;41.730;44.734;2024-03-17T03:26:48;3.95;;;1.10;;
84084;SDS011;74175;41.730;44.734;2024-03-17T03:29:17;3.80;;;1.17;;
84084;SDS011;74175;41.730;44.734;2024-03-17T03:31:43;3.90;;;1.00;;
84084;SDS011;74175;41.730;44.734;2024-03-17T03:34:09;3.42;;;0.93;;
84084;SDS011;74175;41.730;44.734;2024-03-17T03:36:35;4.47;;;0.93;;
84084;SDS011;74175;41.730;44.734;2024-03-17T03:39:02;3.75;;;1.23;;
84084;SDS011;74175;41.730;44.734;2024-03-17T03:41:32;2.97;;;0.80;;
84084;SDS011;74175;41.730;44.734;2024-03-17T03:43:58;3.33;;;0.90;;
84084;SDS011;74175;41.730;44.734;2024-03-17T03:46:24;3.35;;;1.15;;
84084;SDS011;74175;41.730;44.734;2024-03-17T03:48:51;3.75;;;0.93;;
84084;SDS011;74175;41.730;44.734;2024-03-17T03:51:18;3.00;;;0.70;;
84084;SDS011;74175;41.730;44.734;2024-03-17T03:53:44;2.90;;;0.70;;
84084;SDS011;74175;41.730;44.734;2024-03-17T03:56:10;3.70;;;0.90;;
84084;SDS011;74175;41.730;44.734;2024-03-17T03:58:37;4.20;;;0.98;;
84084;SDS011;74175;41.730;44.734;2024-03-17T04:01:05;3.50;;;0.90;;
84084;SDS011;74175;41.730;44.734;2024-03-17T04:03:35;3.88;;;1.10;;
84084;SDS011;74175;41.730;44.734;2024-03-17T04:06:05;3.10;;;1.00;;
84084;SDS011;74175;41.730;44.734;2024-03-17T04:08:33;3.23;;;0.93;;
84084;SDS011;74175;41.730;44.734;2024-03-17T04:11:00;3.20;;;0.98;;
84084;SDS011;74175;41.730;44.734;2024-03-17T04:13:29;4.18;;;1.20;;
84084;SDS011;74175;41.730;44.734;2024-03-17T04:15:56;2.83;;;0.63;;
84084;SDS011;74175;41.730;44.734;2024-03-17T04:18:24;3.40;;;0.90;;
84084;SDS011;74175;41.730;44.734;2024-03-17T04:20:57;2.90;;;0.80;;
84084;SDS011;74175;41.730;44.734;2024-03-17T04:23:23;3.08;;;0.93;;
84084;SDS011;74175;41.730;44.734;2024-03-17T04:25:50;3.83;;;1.30;;
84084;SDS011;74175;41.730;44.734;2024-03-17T04:28:18;2.80;;;0.70;;
84084;SDS011;74175;41.730;44.734;2024-03-17T04:30:44;3.85;;;0.90;;
84084;SDS011;74175;41.730;44.734;2024-03-17T04:33:12;3.23;;;1.00;;
84084;SDS011;74175;41.730;44.734;2024-03-17T04:35:39;4.13;;;1.20;;
84084;SDS011;74175;41.730;44.734;2024-03-17T04:38:06;4.40;;;1.60;;
84084;SDS011;74175;41.730;44.734;2024-03-17T04:40:35;3.55;;;1.00;;
84084;SDS011;74175;41.730;44.734;2024-03-17T04:43:06;3.70;;;1.10;;
84084;SDS011;74175;41.730;44.734;2024-03-17T04:45:32;4.63;;;1.15;;
84084;SDS011;74175;41.730;44.734;2024-03-17T04:47:58;3.77;;;0.90;;
84084;SDS011;74175;41.730;44.734;2024-03-17T04:50:24;3.47;;;1.00;;
84084;SDS011;74175;41.730;44.734;2024-03-17T04:52:52;3.67;;;1.40;;
84084;SDS011;74175;41.730;44.734;2024-03-17T04:55:18;3.92;;;1.33;;
84084;SDS011;74175;41.730;44.734;2024-03-17T04:57:46;3.28;;;1.08;;
84084;SDS011;74175;41.730;44.734;2024-03-17T05:00:12;3.53;;;1.30;;
84084;SDS011;74175;41.730;44.734;2024-03-17T05:02:40;3.93;;;1.10;;
84084;SDS011;74175;41.730;44.734;2024-03-17T05:05:06;3.50;;;1.33;;
84084;SDS011;74175;41.730;44.734;2024-03-17T05:07:34;4.07;;;1.50;;
84084;SDS011;74175;41.730;44.734;2024-03-17T05:10:00;3.88;;;1.20;;
84084;SDS011;74175;41.730;44.734;2024-03-17T05:12:27;4.28;;;1.33;;
84084;SDS011;74175;41.730;44.734;2024-03-17T05:14:53;5.40;;;1.60;;
84084;SDS011;74175;41.730;44.734;2024-03-17T05:17:19;4.00;;;1.43;;
84084;SDS011;74175;41.730;44.734;2024-03-17T05:19:46;4.07;;;1.52;;
84084;SDS011;74175;41.730;44.734;2024-03-17T05:22:12;4.75;;;1.50;;
84084;SDS011;74175;41.730;44.734;2024-03-17T05:24:38;3.92;;;1.48;;
84084;SDS011;74175;41.730;44.734;2024-03-17T05:27:04;4.53;;;1.33;;
84084;SDS011;74175;41.730;44.734;2024-03-17T05:29:30;3.70;;;1.20;;
84084;SDS011;74175;41.730;44.734;2024-03-17T05:31:57;4.10;;;1.52;;
84084;SDS011;74175;41.730;44.734;2024-03-17T05:34:24;3.65;;;1.20;;
84084;SDS011;74175;41.730;44.734;2024-03-17T05:36:50;4.30;;;1.67;;
84084;SDS011;74175;41.730;44.734;2024-03-17T05:39:16;4.63;;;1.40;;
84084;SDS011;74175;41.730;44.734;2024-03-17T05:41:42;3.97;;;1.00;;
84084;SDS011;74175;41.730;44.734;2024-03-17T05:44:09;4.60;;;1.40;;
84084;SDS011;74175;41.730;44.734;2024-03-17T05:46:36;4.18;;;1.48;;
84084;SDS011;74175;41.730;44.734;2024-03-17T05:49:02;6.07;;;1.60;;
84084;SDS011;74175;41.730;44.734;2024-03-17T05:51:29;4.80;;;1.50;;
84084;SDS011;74175;41.730;44.734;2024-03-17T05:53:55;4.15;;;1.40;;
84084;SDS011;74175;41.730;44.734;2024-03-17T05:56:27;4.18;;;1.67;;
84084;SDS011;74175;41.730;44.734;2024-03-17T05:58:53;4.00;;;1.40;;
84084;SDS011;74175;41.730;44.734;2024-03-17T06:01:21;4.38;;;1.88;;
84084;SDS011;74175;41.730;44.734;2024-03-17T06:03:48;4.70;;;1.60;;
84084;SDS011;74175;41.730;44.734;2024-03-17T06:06:14;6.07;;;1.90;;
84084;SDS011;74175;41.730;44.734;2024-03-17T06:08:40;4.57;;;1.83;;
84084;SDS011;74175;41.730;44.734;2024-03-17T06:14:00;5.40;;;1.67;;
84084;SDS011;74175;41.730;44.734;2024-03-17T06:16:30;4.60;;;1.90;;
84084;SDS011;74175;41.730;44.734;2024-03-17T06:18:56;4.80;;;1.80;;
84084;SDS011;74175;41.730;44.734;2024-03-17T06:21:22;4.20;;;1.63;;
84084;SDS011;74175;41.730;44.734;2024-03-17T06:23:49;4.30;;;1.83;;
84084;SDS011;74175;41.730;44.734;2024-03-17T06:26:15;5.82;;;2.10;;
84084;SDS011;74175;41.730;44.734;2024-03-17T06:28:41;4.35;;;1.95;;
84084;SDS011;74175;41.730;44.734;2024-03-17T06:31:08;3.90;;;1.60;;
84084;SDS011;74175;41.730;44.734;2024-03-17T06:33:35;4.70;;;1.58;;
84084;SDS011;74175;41.730;44.734;2024-03-17T06:36:02;5.40;;;2.65;;
84084;SDS011;74175;41.730;44.734;2024-03-17T06:38:31;6.35;;;2.38;;
84084;SDS011;74175;41.730;44.734;2024-03-17T06:40:59;4.57;;;1.88;;
84084;SDS011;74175;41.730;44.734;2024-03-17T06:43:25;4.10;;;1.70;;
84084;SDS011;74175;41.730;44.734;2024-03-17T06:45:58;5.57;;;2.28;;
84084;SDS011;74175;41.730;44.734;2024-03-17T06:48:25;5.03;;;1.90;;
84084;SDS011;74175;41.730;44.734;2024-03-17T06:50:52;5.90;;;1.85;;
84084;SDS011;74175;41.730;44.734;2024-03-17T06:53:23;5.30;;;1.92;;
84084;SDS011;74175;41.730;44.734;2024-03-17T06:58:24;5.72;;;2.33;;
84084;SDS011;74175;41.730;44.734;2024-03-17T07:00:53;4.93;;;1.90;;
84084;SDS011;74175;41.730;44.734;2024-03-17T07:03:22;5.50;;;1.80;;
84084;SDS011;74175;41.730;44.734;2024-03-17T07:05:52;5.47;;;2.10;;
84084;SDS011;74175;41.730;44.734;2024-03-17T07:08:22;4.45;;;1.80;;
84084;SDS011;74175;41.730;44.734;2024-03-17T07:10:56;5.70;;;1.47;;
84084;SDS011;74175;41.730;44.734;2024-03-17T07:13:27;5.47;;;1.90;;
84084;SDS011;74175;41.730;44.734;2024-03-17T07:16:01;4.25;;;1.90;;
84084;SDS011;74175;41.730;44.734;2024-03-17T07:18:28;4.82;;;1.58;;
84084;SDS011;74175;41.730;44.734;2024-03-17T07:20:58;5.53;;;2.05;;
84084;SDS011;74175;41.730;44.734;2024-03-17T07:23:25;4.50;;;1.67;;
84084;SDS011;74175;41.730;44.734;2024-03-17T07:25:55;4.07;;;1.50;;
84084;SDS011;74175;41.730;44.734;2024-03-17T07:28:25;4.57;;;1.70;;
84084;SDS011;74175;41.730;44.734;2024-03-17T07:30:52;5.68;;;2.00;;
84084;SDS011;74175;41.730;44.734;2024-03-17T07:33:22;5.00;;;1.65;;
84084;SDS011;74175;41.730;44.734;2024-03-17T07:35:52;4.70;;;2.00;;
84084;SDS011;74175;41.730;44.734;2024-03-17T07:38:20;4.68;;;1.98;;
84084;SDS011;74175;41.730;44.734;2024-03-17T07:40:55;4.68;;;1.77;;
84084;SDS011;74175;41.730;44.734;2024-03-17T07:43:23;5.57;;;2.25;;
84084;SDS011;74175;41.730;44.734;2024-03-17T07:46:23;6.32;;;2.10;;
84084;SDS011;74175;41.730;44.734;2024-03-17T07:48:43;4.43;;;1.90;;
84084;SDS011;74175;41.730;44.734;2024-03-17T07:51:15;5.30;;;2.00;;
84084;SDS011;74175;41.730;44.734;2024-03-17T07:53:46;5.25;;;2.10;;
84084;SDS011;74175;41.730;44.734;2024-03-17T07:56:20;4.40;;;1.55;;
84084;SDS011;74175;41.730;44.734;2024-03-17T07:58:46;6.25;;;2.17;;
84084;SDS011;74175;41.730;44.734;2024-03-17T08:01:17;5.90;;;2.00;;
84084;SDS011;74175;41.730;44.734;2024-03-17T08:03:46;5.50;;;1.95;;
84084;SDS011;74175;41.730;44.734;2024-03-17T08:06:15;5.30;;;2.00;;
84084;SDS011;74175;41.730;44.734;2024-03-17T08:08:41;5.07;;;1.98;;
84084;SDS011;74175;41.730;44.734;2024-03-17T08:11:07;3.90;;;1.58;;
84084;SDS011;74175;41.730;44.734;2024-03-17T08:13:34;4.03;;;1.80;;
84084;SDS011;74175;41.730;44.734;2024-03-17T08:16:01;5.10;;;2.10;;
84084;SDS011;74175;41.730;44.734;2024-03-17T08:18:30;5.75;;;1.60;;
84084;SDS011;74175;41.730;44.734;2024-03-17T08:20:57;4.57;;;1.75;;
84084;SDS011;74175;41.730;44.734;2024-03-17T08:23:23;5.00;;;2.03;;
84084;SDS011;74175;41.730;44.734;2024-03-17T08:28:22;4.65;;;1.80;;
84084;SDS011;74175;41.730;44.734;2024-03-17T08:30:53;4.40;;;1.73;;
84084;SDS011;74175;41.730;44.734;2024-03-17T08:33:20;5.07;;;1.70;;
84084;SDS011;74175;41.730;44.734;2024-03-17T08:35:54;5.18;;;2.13;;
84084;SDS011;74175;41.730;44.734;2024-03-17T08:38:21;5.00;;;1.90;;
84084;SDS011;74175;41.730;44.734;2024-03-17T08:40:49;4.22;;;1.73;;
84084;SDS011;74175;41.730;44.734;2024-03-17T08:43:16;5.00;;;1.90;;
84084;SDS011;74175;41.730;44.734;2024-03-17T08:45:42;4.78;;;2.00;;
84084;SDS011;74175;41.730;44.734;2024-03-17T08:48:09;5.32;;;1.95;;
84084;SDS011;74175;41.730;44.734;2024-03-17T08:50:36;4.50;;;1.73;;
84084;SDS011;74175;41.730;44.734;2024-03-17T08:53:02;4.35;;;1.77;;
84084;SDS011;74175;41.730;44.734;2024-03-17T08:55:29;5.75;;;2.17;;
84084;SDS011;74175;41.730;44.734;2024-03-17T08:57:55;3.97;;;1.55;;
84084;SDS011;74175;41.730;44.734;2024-03-17T09:00:21;4.32;;;1.70;;
84084;SDS011;74175;41.730;44.734;2024-03-17T09:02:47;4.80;;;2.00;;
84084;SDS011;74175;41.730;44.734;2024-03-17T09:05:13;5.18;;;2.00;;
84084;SDS011;74175;41.730;44.734;2024-03-17T09:07:39;5.10;;;2.20;;
84084;SDS011;74175;41.730;44.734;2024-03-17T09:10:07;6.82;;;2.85;;
84084;SDS011;74175;41.730;44.734;2024-03-17T09:12:34;5.32;;;1.80;;
84084;SDS011;74175;41.730;44.734;2024-03-17T09:15:02;4.10;;;1.90;;
84084;SDS011;74175;41.730;44.734;2024-03-17T09:17:28;6.70;;;2.92;;
84084;SDS011;74175;41.730;44.734;2024-03-17T09:19:56;5.68;;;2.10;;
84084;SDS011;74175;41.730;44.734;2024-03-17T09:22:22;5.90;;;2.50;;
84084;SDS011;74175;41.730;44.734;2024-03-17T09:24:49;7.03;;;3.05;;
84084;SDS011;74175;41.730;44.734;2024-03-17T09:27:15;5.67;;;2.30;;
84084;SDS011;74175;41.730;44.734;2024-03-17T09:29:48;8.10;;;3.75;;
84084;SDS011;74175;41.730;44.734;2024-03-17T09:32:14;7.15;;;2.83;;
84084;SDS011;74175;41.730;44.734;2024-03-17T09:34:46;6.65;;;2.92;;
84084;SDS011;74175;41.730;44.734;2024-03-17T09:37:16;5.95;;;2.47;;
84084;SDS011;74175;41.730;44.734;2024-03-17T09:39:42;7.17;;;2.60;;
84084;SDS011;74175;41.730;44.734;2024-03-17T09:42:16;6.38;;;3.08;;
84084;SDS011;74175;41.730;44.734;2024-03-17T09:44:46;6.65;;;3.55;;
84084;SDS011;74175;41.730;44.734;2024-03-17T09:47:16;5.72;;;2.58;;
84084;SDS011;74175;41.730;44.734;2024-03-17T09:49:47;6.22;;;3.40;;
84084;SDS011;74175;41.730;44.734;2024-03-17T09:52:21;5.93;;;2.80;;
84084;SDS011;74175;41.730;44.734;2024-03-17T09:54:53;6.10;;;1.95;;
84084;SDS011;74175;41.730;44.734;2024-03-17T09:57:21;4.50;;;1.90;;
84084;SDS011;74175;41.730;44.734;2024-03-17T09:59:53;6.00;;;2.45;;
84084;SDS011;74175;41.730;44.734;2024-03-17T10:02:19;5.72;;;2.05;;
84084;SDS011;74175;41.730;44.734;2024-03-17T10:04:46;5.03;;;2.13;;
84084;SDS011;74175;41.730;44.734;2024-03-17T10:07:12;5.23;;;2.60;;
84084;SDS011;74175;41.730;44.734;2024-03-17T10:09:43;4.88;;;2.35;;
84084;SDS011;74175;41.730;44.734;2024-03-17T10:12:26;4.63;;;1.80;;
84084;SDS011;74175;41.730;44.734;2024-03-17T10:15:00;5.90;;;2.50;;
84084;SDS011;74175;41.730;44.734;2024-03-17T10:17:31;5.55;;;1.92;;
84084;SDS011;74175;41.730;44.734;2024-03-17T10:20:11;5.13;;;2.33;;
84084;SDS011;74175;41.730;44.734;2024-03-17T10:25:27;4.18;;;1.52;;
84084;SDS011;74175;41.730;44.734;2024-03-17T10:27:56;4.93;;;1.90;;
84084;SDS011;74175;41.730;44.734;2024-03-17T10:30:23;4.93;;;2.42;;
84084;SDS011;74175;41.730;44.734;2024-03-17T10:32:56;4.80;;;2.27;;
84084;SDS011;74175;41.730;44.734;2024-03-17T10:38:23;4.40;;;2.13;;
84084;SDS011;74175;41.730;44.734;2024-03-17T10:40:49;5.38;;;2.60;;
84084;SDS011;74175;41.730;44.734;2024-03-17T10:43:17;5.47;;;2.53;;
84084;SDS011;74175;41.730;44.734;2024-03-17T10:45:45;4.93;;;2.40;;
84084;SDS011;74175;41.730;44.734;2024-03-17T10:51:02;3.60;;;1.35;;
84084;SDS011;74175;41.730;44.734;2024-03-17T10:53:29;3.88;;;1.40;;
84084;SDS011;74175;41.730;44.734;2024-03-17T10:56:03;3.80;;;1.70;;
84084;SDS011;74175;41.730;44.734;2024-03-17T10:58:42;5.50;;;1.60;;
84084;SDS011;74175;41.730;44.734;2024-03-17T11:01:15;4.03;;;1.80;;
84084;SDS011;74175;41.730;44.734;2024-03-17T11:03:42;4.82;;;1.70;;
84084;SDS011;74175;41.730;44.734;2024-03-17T11:06:11;6.25;;;1.98;;
84084;SDS011;74175;41.730;44.734;2024-03-17T11:08:37;4.63;;;1.50;;
84084;SDS011;74175;41.730;44.734;2024-03-17T11:11:04;3.17;;;1.20;;
84084;SDS011;74175;41.730;44.734;2024-03-17T11:13:31;4.43;;;1.98;;
84084;SDS011;74175;41.730;44.734;2024-03-17T11:15:58;4.40;;;1.80;;
84084;SDS011;74175;41.730;44.734;2024-03-17T11:21:07;5.47;;;1.70;;
84084;SDS011;74175;41.730;44.734;2024-03-17T11:23:56;4.07;;;1.90;;
84084;SDS011;74175;41.730;44.734;2024-03-17T11:26:45;4.07;;;1.65;;
84084;SDS011;74175;41.730;44.734;2024-03-17T11:29:27;8.88;;;2.00;;
84084;SDS011;74175;41.730;44.734;2024-03-17T11:31:54;4.47;;;1.88;;
84084;SDS011;74175;41.730;44.734;2024-03-17T11:34:28;4.43;;;1.45;;
84084;SDS011;74175;41.730;44.734;2024-03-17T11:36:55;4.30;;;1.87;;
84084;SDS011;74175;41.730;44.734;2024-03-17T11:40:21;4.18;;;1.60;;
84084;SDS011;74175;41.730;44.734;2024-03-17T11:42:12;4.88;;;2.30;;
84084;SDS011;74175;41.730;44.734;2024-03-17T11:44:44;4.05;;;1.75;;
84084;SDS011;74175;41.730;44.734;2024-03-17T11:47:20;4.63;;;1.83;;
84084;SDS011;74175;41.730;44.734;2024-03-17T11:49:47;6.40;;;2.60;;
84084;SDS011;74175;41.730;44.734;2024-03-17T11:52:13;7.88;;;3.00;;
84084;SDS011;74175;41.730;44.734;2024-03-17T11:54:44;8.75;;;3.72;;
84084;SDS011;74175;41.730;44.734;2024-03-17T11:57:12;6.70;;;2.90;;
84084;SDS011;74175;41.730;44.734;2024-03-17T11:59:39;5.03;;;1.90;;
84084;SDS011;74175;41.730;44.734;2024-03-17T12:02:10;3.10;;;1.07;;
84084;SDS011;74175;41.730;44.734;2024-03-17T12:04:45;4.30;;;1.60;;
84084;SDS011;74175;41.730;44.734;2024-03-17T12:07:14;3.78;;;1.30;;
84084;SDS011;74175;41.730;44.734;2024-03-17T12:09:44;4.97;;;1.73;;
84084;SDS011;74175;41.730;44.734;2024-03-17T12:14:50;5.27;;;1.60;;
84084;SDS011;74175;41.730;44.734;2024-03-17T12:17:20;3.73;;;1.13;;
84084;SDS011;74175;41.730;44.734;2024-03-17T12:19:48;4.68;;;1.50;;
84084;SDS011;74175;41.730;44.734;2024-03-17T12:22:18;4.38;;;1.70;;
84084;SDS011;74175;41.730;44.734;2024-03-17T12:24:52;4.10;;;1.40;;
84084;SDS011;74175;41.730;44.734;2024-03-17T12:27:20;4.55;;;1.70;;
84084;SDS011;74175;41.730;44.734;2024-03-17T12:29:48;4.78;;;1.23;;
84084;SDS011;74175;41.730;44.734;2024-03-17T12:32:15;4.47;;;1.50;;
84084;SDS011;74175;41.730;44.734;2024-03-17T12:34:46;4.00;;;1.55;;
84084;SDS011;74175;41.730;44.734;2024-03-17T12:37:16;3.67;;;1.38;;
84084;SDS011;74175;41.730;44.734;2024-03-17T12:39:43;3.20;;;1.20;;
84084;SDS011;74175;41.730;44.734;2024-03-17T12:42:14;4.35;;;1.50;;
84084;SDS011;74175;41.730;44.734;2024-03-17T12:44:49;4.17;;;1.60;;
84084;SDS011;74175;41.730;44.734;2024-03-17T12:47:20;4.20;;;1.77;;
84084;SDS011;74175;41.730;44.734;2024-03-17T12:49:51;4.38;;;1.70;;
84084;SDS011;74175;41.730;44.734;2024-03-17T12:52:19;4.78;;;1.70;;
84084;SDS011;74175;41.730;44.734;2024-03-17T12:54:57;4.20;;;1.60;;
84084;SDS011;74175;41.730;44.734;2024-03-17T12:57:42;3.73;;;1.20;;
84084;SDS011;74175;41.730;44.734;2024-03-17T13:00:27;4.57;;;1.63;;
84084;SDS011;74175;41.730;44.734;2024-03-17T13:03:03;4.80;;;1.80;;
84084;SDS011;74175;41.730;44.734;2024-03-17T13:05:31;3.45;;;1.20;;
84084;SDS011;74175;41.730;44.734;2024-03-17T13:07:58;3.95;;;1.90;;
84084;SDS011;74175;41.730;44.734;2024-03-17T13:10:25;3.50;;;1.33;;
84084;SDS011;74175;41.730;44.734;2024-03-17T13:13:04;4.97;;;1.80;;
84084;SDS011;74175;41.730;44.734;2024-03-17T13:15:32;5.95;;;1.90;;
84084;SDS011;74175;41.730;44.734;2024-03-17T13:18:02;5.15;;;1.50;;
84084;SDS011;74175;41.730;44.734;2024-03-17T13:20:30;5.93;;;2.10;;
84084;SDS011;74175;41.730;44.734;2024-03-17T13:22:56;5.87;;;2.00;;
84084;SDS011;74175;41.730;44.734;2024-03-17T13:25:25;5.35;;;2.13;;
84084;SDS011;74175;41.730;44.734;2024-03-17T13:27:55;4.50;;;1.90;;
84084;SDS011;74175;41.730;44.734;2024-03-17T13:30:22;3.92;;;1.58;;
84084;SDS011;74175;41.730;44.734;2024-03-17T13:32:50;4.30;;;1.75;;
84084;SDS011;74175;41.730;44.734;2024-03-17T13:35:26;3.77;;;1.30;;
84084;SDS011;74175;41.730;44.734;2024-03-17T13:37:54;4.07;;;1.67;;
84084;SDS011;74175;41.730;44.734;2024-03-17T13:40:22;4.78;;;2.00;;
84084;SDS011;74175;41.730;44.734;2024-03-17T13:42:49;4.10;;;1.70;;
84084;SDS011;74175;41.730;44.734;2024-03-17T13:45:17;4.45;;;1.52;;
84084;SDS011;74175;41.730;44.734;2024-03-17T13:47:46;4.10;;;1.45;;
84084;SDS011;74175;41.730;44.734;2024-03-17T13:50:14;4.30;;;1.90;;
84084;SDS011;74175;41.730;44.734;2024-03-17T13:52:41;5.22;;;1.40;;
84084;SDS011;74175;41.730;44.734;2024-03-17T13:55:12;4.00;;;1.20;;
84084;SDS011;74175;41.730;44.734;2024-03-17T13:57:41;5.60;;;2.10;;
84084;SDS011;74175;41.730;44.734;2024-03-17T14:00:11;4.45;;;1.70;;
84084;SDS011;74175;41.730;44.734;2024-03-17T14:02:44;4.00;;;1.40;;
84084;SDS011;74175;41.730;44.734;2024-03-17T14:05:12;5.50;;;2.25;;
84084;SDS011;74175;41.730;44.734;2024-03-17T14:07:39;4.90;;;2.10;;
84084;SDS011;74175;41.730;44.734;2024-03-17T14:10:07;4.78;;;1.83;;
84084;SDS011;74175;41.730;44.734;2024-03-17T14:12:36;5.63;;;1.70;;
84084;SDS011;74175;41.730;44.734;2024-03-17T14:15:03;5.88;;;2.10;;
84084;SDS011;74175;41.730;44.734;2024-03-17T14:17:43;5.60;;;2.17;;
84084;SDS011;74175;41.730;44.734;2024-03-17T14:20:09;5.43;;;2.00;;
84084;SDS011;74175;41.730;44.734;2024-03-17T14:22:37;5.40;;;2.08;;
84084;SDS011;74175;41.730;44.734;2024-03-17T14:25:05;3.83;;;1.48;;
84084;SDS011;74175;41.730;44.734;2024-03-17T14:27:32;3.85;;;1.17;;
84084;SDS011;74175;41.730;44.734;2024-03-17T14:32:49;4.20;;;1.60;;
84084;SDS011;74175;41.730;44.734;2024-03-17T14:35:19;4.20;;;1.35;;
84084;SDS011;74175;41.730;44.734;2024-03-17T14:37:48;4.63;;;2.00;;
84084;SDS011;74175;41.730;44.734;2024-03-17T14:40:15;6.50;;;2.17;;
84084;SDS011;74175;41.730;44.734;2024-03-17T14:42:49;4.28;;;1.48;;
84084;SDS011;74175;41.730;44.734;2024-03-17T14:45:18;4.17;;;1.47;;
84084;SDS011;74175;41.730;44.734;2024-03-17T14:47:45;4.13;;;1.80;;
84084;SDS011;74175;41.730;44.734;2024-03-17T14:50:11;5.30;;;2.05;;
84084;SDS011;74175;41.730;44.734;2024-03-17T14:52:38;3.90;;;1.30;;
84084;SDS011;74175;41.730;44.734;2024-03-17T14:55:06;5.88;;;2.60;;
84084;SDS011;74175;41.730;44.734;2024-03-17T14:57:33;5.45;;;2.13;;
84084;SDS011;74175;41.730;44.734;2024-03-17T14:59:59;5.43;;;2.23;;
84084;SDS011;74175;41.730;44.734;2024-03-17T15:02:25;6.15;;;2.40;;
84084;SDS011;74175;41.730;44.734;2024-03-17T15:04:52;5.97;;;2.38;;